createdAt,value
2018-08-30T00:01:03.072Z,22.03
2018-08-30T00:03:39.846Z,17.27
2018-08-30T00:06:13.613Z,17.60
2018-08-30T00:08:47.593Z,19.70
2018-08-30T00:11:23.082Z,19.00
2018-08-30T00:13:54.043Z,18.60
2018-08-30T00:16:29.997Z,23.23
2018-08-30T00:19:01.229Z,25.63
2018-08-30T00:21:35.747Z,20.30
2018-08-30T00:24:10.619Z,20.20
2018-08-30T00:26:41.829Z,24.05
2018-08-30T00:29:11.279Z,25.00
2018-08-30T00:31:44.029Z,25.73
2018-08-30T00:34:13.705Z,27.83
2018-08-30T00:36:44.851Z,29.30
2018-08-30T00:39:15.156Z,24.60
2018-08-30T00:41:56.601Z,32.93
2018-08-30T00:44:27.901Z,28.37
2018-08-30T00:47:01.832Z,31.03
2018-08-30T00:49:38.589Z,32.80
2018-08-30T00:52:10.246Z,32.38
2018-08-30T00:54:50.267Z,29.57
2018-08-30T00:57:29.891Z,34.40
2018-08-30T01:00:08.250Z,31.63
2018-08-30T01:02:49.388Z,33.27
2018-08-30T01:05:20.765Z,30.80
2018-08-30T01:07:59.744Z,38.20
2018-08-30T01:10:33.036Z,31.13
2018-08-30T01:15:49.729Z,29.33
2018-08-30T01:18:27.502Z,30.02
2018-08-30T01:21:01.344Z,27.87
2018-08-30T01:23:32.945Z,23.70
2018-08-30T01:26:05.768Z,30.53
2018-08-30T01:28:41.030Z,27.40
2018-08-30T01:31:15.155Z,37.53
2018-08-30T01:33:52.377Z,29.43
2018-08-30T01:36:27.670Z,27.53
2018-08-30T01:39:03.133Z,30.57
2018-08-30T01:41:37.928Z,30.30
2018-08-30T01:44:25.255Z,33.77
2018-08-30T01:46:59.971Z,31.13
2018-08-30T01:49:32.871Z,29.33
2018-08-30T01:52:06.354Z,26.80
2018-08-30T01:54:44.896Z,28.67
2018-08-30T01:57:24.288Z,27.13
2018-08-30T01:59:59.161Z,34.37
2018-08-30T02:02:30.295Z,29.07
2018-08-30T02:05:05.640Z,26.80
2018-08-30T02:07:36.882Z,26.97
2018-08-30T02:10:13.189Z,37.90
2018-08-30T02:12:49.003Z,27.80
2018-08-30T02:15:25.480Z,31.83
2018-08-30T02:18:06.046Z,34.47
2018-08-30T02:20:39.652Z,28.87
2018-08-30T02:23:28.429Z,29.73
2018-08-30T02:26:05.283Z,38.63
2018-08-30T02:28:43.838Z,39.13
2018-08-30T02:31:29.081Z,32.60
2018-08-30T02:34:09.887Z,47.50
2018-08-30T02:36:49.459Z,47.00
2018-08-30T02:39:30.978Z,47.63
2018-08-30T02:42:04.153Z,42.73
2018-08-30T02:44:49.256Z,56.63
2018-08-30T02:47:28.394Z,43.20
2018-08-30T02:50:03.332Z,40.80
2018-08-30T02:52:40.406Z,44.03
2018-08-30T02:55:10.506Z,38.67
2018-08-30T02:57:52.193Z,42.90
2018-08-30T03:00:30.597Z,43.27
2018-08-30T03:10:07.826Z,50.80
2018-08-30T03:12:42.597Z,42.37
2018-08-30T03:15:20.754Z,43.33
2018-08-30T03:17:51.598Z,35.50
2018-08-30T03:20:27.661Z,43.80
2018-08-30T03:22:59.213Z,45.80
2018-08-30T03:25:32.401Z,35.20
2018-08-30T03:28:08.976Z,37.00
2018-08-30T03:30:48.203Z,42.67
2018-08-30T03:33:26.871Z,40.97
2018-08-30T03:36:03.483Z,44.60
2018-08-30T03:38:35.712Z,37.90
2018-08-30T03:41:10.119Z,38.07
2018-08-30T03:43:45.844Z,46.27
2018-08-30T03:47:23.780Z,46.30
2018-08-30T03:49:57.849Z,45.57
2018-08-30T03:52:37.932Z,39.93
2018-08-30T03:55:09.176Z,38.53
2018-08-30T03:57:40.194Z,38.00
2018-08-30T04:00:14.122Z,38.60
2018-08-30T04:02:44.052Z,38.43
2018-08-30T04:05:24.390Z,42.47
2018-08-30T04:07:55.941Z,32.00
2018-08-30T04:10:42.988Z,36.50
2018-08-30T04:13:23.439Z,44.17
2018-08-30T04:15:58.693Z,53.70
2018-08-30T04:18:39.286Z,44.30
2018-08-30T04:21:19.493Z,48.43
2018-08-30T04:23:50.988Z,41.20
2018-08-30T04:26:27.046Z,35.67
2018-08-30T04:29:04.486Z,44.03
2018-08-30T04:31:37.526Z,37.20
2018-08-30T04:34:10.352Z,27.20
2018-08-30T04:36:46.524Z,29.87
2018-08-30T04:39:24.693Z,25.43
2018-08-30T04:42:01.165Z,27.37
2018-08-30T04:44:55.895Z,35.25
2018-08-30T04:47:39.224Z,33.60
2018-08-30T04:50:19.574Z,30.40
2018-08-30T04:53:04.732Z,35.63
2018-08-30T04:55:41.805Z,37.37
2018-08-30T04:58:19.830Z,42.50
2018-08-30T05:00:53.860Z,35.43
2018-08-30T05:03:35.491Z,43.40
2018-08-30T05:06:14.589Z,37.20
2018-08-30T05:13:38.755Z,34.20
2018-08-30T05:16:09.373Z,36.10
2018-08-30T05:18:51.025Z,35.57
2018-08-30T05:21:20.392Z,30.92
2018-08-30T05:24:00.036Z,27.87
2018-08-30T05:26:34.370Z,36.60
2018-08-30T05:29:08.592Z,43.17
2018-08-30T05:31:49.190Z,50.57
2018-08-30T05:34:25.013Z,51.60
2018-08-30T05:36:58.479Z,45.37
2018-08-30T05:39:42.082Z,42.87
2018-08-30T05:42:18.187Z,35.57
2018-08-30T05:45:28.859Z,38.83
2018-08-30T05:48:05.151Z,37.93
2018-08-30T05:50:44.711Z,33.77
2018-08-30T05:53:15.679Z,35.40
2018-08-30T05:55:50.464Z,40.67
2018-08-30T05:58:20.219Z,38.43
2018-08-30T06:00:52.601Z,33.90
2018-08-30T06:03:25.386Z,43.33
2018-08-30T06:06:06.040Z,37.53
2018-08-30T06:08:44.410Z,42.93
2018-08-30T06:11:27.786Z,48.63
2018-08-30T06:14:05.625Z,38.40
2018-08-30T06:16:47.154Z,40.77
2018-08-30T06:19:20.029Z,44.50
2018-08-30T06:22:00.865Z,38.33
2018-08-30T06:24:33.470Z,33.30
2018-08-30T06:27:14.767Z,50.53
2018-08-30T06:29:59.941Z,31.77
2018-08-30T06:32:44.104Z,27.10
2018-08-30T06:35:18.639Z,27.70
2018-08-30T06:37:59.389Z,27.30
2018-08-30T06:40:33.766Z,24.90
2018-08-30T06:43:21.841Z,21.10
2018-08-30T06:46:03.869Z,17.13
2018-08-30T06:49:22.323Z,20.50
2018-08-30T06:52:01.713Z,22.27
2018-08-30T06:54:35.742Z,25.88
2018-08-30T06:57:11.229Z,28.27
2018-08-30T07:00:03.214Z,24.60
2018-08-30T07:02:49.698Z,20.43
2018-08-30T07:05:22.818Z,16.13
2018-08-30T07:07:58.886Z,17.50
2018-08-30T07:10:37.428Z,16.30
2018-08-30T07:13:15.545Z,16.17
2018-08-30T07:15:48.698Z,19.47
2018-08-30T07:18:30.428Z,20.43
2018-08-30T07:21:18.791Z,19.15
2018-08-30T07:24:04.629Z,12.33
2018-08-30T07:27:07.236Z,14.10
2018-08-30T07:30:02.436Z,18.27
2018-08-30T07:32:37.820Z,12.77
2018-08-30T07:35:20.131Z,18.17
2018-08-30T07:38:04.473Z,18.43
2018-08-30T07:40:46.602Z,13.17
2018-08-30T07:43:23.996Z,13.47
2018-08-30T07:46:39.496Z,11.87
2018-08-30T07:49:17.602Z,9.43
2018-08-30T07:54:54.282Z,14.40
2018-08-30T07:57:31.517Z,11.97
2018-08-30T08:00:19.333Z,11.30
2018-08-30T08:03:05.637Z,15.87
2018-08-30T08:05:49.992Z,10.73
2018-08-30T08:08:36.397Z,10.13
2018-08-30T08:11:17.285Z,7.03
2018-08-30T08:14:08.101Z,16.30
2018-08-30T08:16:56.746Z,11.50
2018-08-30T08:19:51.874Z,9.53
2018-08-30T08:22:43.477Z,12.73
2018-08-30T08:28:22.326Z,7.90
2018-08-30T08:31:25.020Z,13.00
2018-08-30T08:37:07.777Z,10.10
2018-08-30T08:42:03.613Z,11.10
2018-08-30T08:44:40.356Z,11.40
2018-08-30T08:47:26.764Z,31.87
2018-08-30T08:50:03.194Z,10.30
2018-08-30T08:52:50.002Z,9.40
2018-08-30T08:55:35.312Z,9.90
2018-08-30T08:58:28.738Z,9.90
2018-08-30T09:01:14.958Z,9.83
2018-08-30T09:03:58.102Z,10.07
2018-08-30T09:06:39.517Z,14.00
2018-08-30T09:09:39.736Z,8.63
2018-08-30T09:12:16.250Z,11.03
2018-08-30T09:15:37.661Z,11.50
2018-08-30T09:18:19.032Z,13.23
2018-08-30T09:21:02.244Z,8.57
2018-08-30T09:23:50.106Z,12.40
2018-08-30T09:26:42.977Z,13.53
2018-08-30T09:32:59.946Z,18.43
2018-08-30T09:35:51.247Z,7.53
2018-08-30T09:44:34.575Z,14.57
2018-08-30T09:47:18.727Z,14.50
2018-08-30T09:50:06.364Z,9.53
2018-08-30T09:58:39.127Z,13.03
2018-08-30T10:01:34.265Z,15.10
2018-08-30T10:04:20.852Z,6.30
2018-08-30T10:06:59.606Z,11.23
2018-08-30T10:09:51.841Z,14.63
2018-08-30T10:12:31.555Z,13.93
2018-08-30T10:20:58.380Z,6.53
2018-08-30T10:23:36.301Z,6.57
2018-08-30T10:26:32.528Z,17.23
2018-08-30T10:34:29.816Z,5.97
2018-08-30T10:37:17.373Z,6.50
2018-08-30T10:39:54.501Z,8.03
2018-08-30T10:43:01.887Z,7.70
2018-08-30T10:45:56.773Z,21.93
2018-08-30T10:48:43.532Z,4.63
2018-08-30T10:51:32.619Z,8.33
2018-08-30T10:57:17.930Z,4.70
2018-08-30T11:00:03.463Z,8.60
2018-08-30T11:02:51.464Z,12.53
2018-08-30T11:05:34.985Z,7.30
2018-08-30T11:17:58.338Z,8.77
2018-08-30T11:39:34.728Z,11.80
2018-08-30T11:42:34.158Z,5.90
2018-08-30T11:45:25.570Z,8.33
2018-08-30T11:48:23.585Z,9.93
2018-08-30T12:06:50.053Z,8.43
2018-08-30T12:09:35.876Z,7.00
2018-08-30T12:12:20.792Z,8.23
2018-08-30T12:19:50.487Z,6.17
2018-08-30T12:22:44.499Z,7.70
2018-08-30T12:25:36.788Z,7.90
2018-08-30T12:31:38.276Z,6.10
2018-08-30T12:40:05.245Z,4.47
2018-08-30T12:52:12.880Z,6.73
2018-08-30T12:55:35.767Z,12.30
2018-08-30T13:24:31.488Z,10.90
2018-08-30T13:27:46.144Z,4.03
2018-08-30T13:30:59.211Z,13.83
2018-08-30T13:33:46.185Z,10.33
2018-08-30T13:49:17.913Z,4.20
2018-08-30T13:58:53.688Z,18.80
2018-08-30T14:01:57.635Z,5.80
2018-08-30T14:04:55.174Z,10.03
2018-08-30T14:10:38.980Z,14.50
2018-08-30T14:13:39.378Z,6.30
2018-08-30T14:16:49.006Z,7.10
2018-08-30T14:19:53.913Z,11.12
2018-08-30T14:22:47.941Z,4.63
2018-08-30T14:28:37.260Z,5.43
2018-08-30T14:31:57.640Z,9.13
2018-08-30T14:34:42.161Z,8.23
2018-08-30T14:37:29.950Z,5.60
2018-08-30T16:39:32.429Z,7.50
2018-08-30T16:42:25.301Z,5.50
2018-08-30T16:45:29.347Z,5.80
2018-08-30T17:05:28.643Z,8.63
2018-08-30T17:11:26.937Z,9.60
2018-08-30T17:14:17.728Z,5.03
2018-08-30T17:47:11.095Z,7.57
2018-08-30T17:55:53.251Z,6.57
2018-08-30T18:20:59.322Z,8.73
2018-08-30T18:26:56.276Z,4.10
2018-08-30T18:29:47.866Z,8.13
2018-08-30T19:12:21.862Z,7.17
2018-08-30T19:15:05.713Z,8.77
2018-08-30T19:26:30.838Z,3.83
2018-08-30T19:32:46.069Z,19.07
2018-08-30T19:38:27.219Z,7.50
2018-08-30T19:47:06.362Z,5.10
2018-08-30T19:50:09.830Z,8.20
2018-08-30T19:53:19.245Z,3.90
2018-08-30T20:32:56.982Z,4.83
2018-08-30T20:41:02.458Z,3.23
2018-08-30T20:46:40.503Z,5.90
2018-08-30T20:49:25.387Z,2.50
2018-08-30T20:58:49.525Z,20.43
2018-08-30T21:01:28.469Z,8.80
2018-08-30T21:04:22.042Z,7.70
2018-08-30T21:07:08.445Z,10.27
2018-08-30T21:09:50.873Z,10.33
2018-08-30T21:12:33.328Z,16.23
2018-08-30T21:15:19.711Z,3.87
2018-08-30T21:21:16.141Z,6.20
2018-08-30T21:23:54.440Z,9.53
2018-08-30T21:36:28.044Z,8.33
2018-08-30T21:57:48.009Z,6.13
2018-08-30T22:12:28.632Z,4.97
2018-08-30T22:15:11.421Z,10.28
2018-08-30T22:18:11.449Z,6.03
2018-08-30T22:20:58.851Z,7.77
2018-08-30T22:23:54.951Z,7.47
2018-08-30T22:32:30.690Z,4.47
2018-08-30T22:35:16.460Z,12.07
2018-08-30T22:38:10.721Z,11.47
2018-08-30T22:41:29.534Z,6.37
2018-08-30T22:44:38.178Z,7.63
2018-08-30T22:53:43.168Z,7.37
2018-08-30T23:00:16.592Z,9.17
2018-08-30T23:02:57.947Z,9.10
2018-08-30T23:05:45.684Z,5.10
2018-08-30T23:08:34.945Z,7.90
2018-08-30T23:15:01.926Z,7.50
2018-08-30T23:23:44.413Z,11.83
2018-08-30T23:27:05.160Z,4.62
2018-08-30T23:30:54.337Z,3.23
2018-08-30T23:33:55.399Z,7.90
2018-08-30T23:36:44.987Z,5.07
2018-08-30T23:39:26.570Z,7.80
2018-08-30T23:42:25.459Z,3.60
2018-08-30T23:56:24.126Z,7.08
2018-08-30T23:59:21.473Z,4.90
